ホノルル の空港の天気 - METARとTAF

ホノルル国際空港 ( PHNL / HNL ) - アメリカ ハワイ州ホノルル
飛行場実況気象(Metar)
観測時間12/01 13:53 HST (12/01 23:53 UTC)
風向・風速南南東 7m/s
視程10km以上
天気現象
少しの雲 雲底高度 760m
少しの雲 雲底高度 1370m
気温27.2℃
湿度58%
気圧1014.1hPa
METARPHNL 012353Z 15013KT 10SM FEW025 FEW045 27/18 A2995 RMK AO2 SLP141 T02720183 10278 20211 56030
過去の天気等 Google飛行場航空写真 Wunderground天気予報

過去48時間のMETAR

飛行場予報(TAF)
発表時間: 12/01 13:38 HST (12/01 23:38 UTC)
予報対象時間: 1日14時 HST ~ 2日20時 HST
風向・風速南南東 7m/s
視程10km以上
少しの雲 雲底高度 1220m
1日19時 HST から
風向・風速北北東 3m/s
視程10km以上
少しの雲 雲底高度 1070m
2日11時 HST から
風向・風速南東 6m/s
視程10km以上
少しの雲 雲底高度 760m
全天の4割程度の雲 雲底高度 1370m
2日19時 HST から
風向・風速北北東 3m/s
視程10km以上
少しの雲 雲底高度 1070m
PHNL 012338Z 0200/0306 15013KT P6SM FEW040
FM020500 02005KT P6SM FEW035
FM022100 13012KT P6SM FEW025 SCT045
FM030500 02005KT P6SM FEW035